Time;durP1;ratioP1;P1;durP2;ratioP2;P2;SDS_P1;SDS_P2;PMS_P1;PMS_P2;Temp;Humidity;BMP_temperature;BMP_pressure;BME280_temperature;BME280_humidity;BME280_pressure;Samples;Min_cycle;Max_cycle;Signal;HPM_P1;HPM_P2
2024/03/06 00:01:51;;;;;;;;;;;;;;;20.90;35.67;100833.77;102958;1294;62210;-80
2024/03/06 00:04:17;;;;;;;;;;;;;;;20.90;35.68;100832.66;102837;1290;62815;-81
2024/03/06 00:06:43;;;;;;;;;;;;;;;20.90;35.80;100838.06;102617;1296;63292;-79
2024/03/06 00:09:08;;;;;;;;;;;;;;;20.90;35.86;100837.33;102818;1289;63467;-79
2024/03/06 00:11:35;;;;;;;;;;;;;;;20.90;35.69;100838.02;102829;1290;62120;-81
2024/03/06 00:14:02;;;;;;;;;;;;;;;20.91;35.72;100842.10;102668;1295;62540;-80
2024/03/06 00:16:28;;;;;;;;;;;;;;;20.90;35.72;100842.65;103068;1295;62280;-79
2024/03/06 00:18:53;;;;;;;;;;;;;;;20.91;35.80;100842.98;102821;1294;63385;-79
2024/03/06 00:21:19;;;;;;;;;;;;;;;20.91;35.72;100840.47;102677;1297;63435;-81
2024/03/06 00:23:45;;;;;;;;;;;;;;;20.91;35.77;100842.78;103110;1290;62204;-78
2024/03/06 00:26:12;;;;;;;;;;;;;;;20.91;35.84;100846.89;102813;1293;75367;-81
2024/03/06 00:28:38;;;;;;;;;;;;;;;20.92;35.66;100846.13;102676;1295;63421;-81
2024/03/06 00:31:07;;;;;;;;;;;;;;;20.93;35.72;100843.59;103156;1291;62217;-79
2024/03/06 00:33:32;;;;;;;;;;;;;;;20.92;35.78;100848.08;102607;1296;72673;-80
2024/03/06 00:35:58;;;;;;;;;;;;;;;20.92;35.73;100848.61;102820;1294;62223;-79
2024/03/06 00:38:23;;;;;;;;;;;;;;;20.93;35.73;100846.78;103254;1291;62223;-78
2024/03/06 00:40:49;;;;;;;;;;;;;;;20.93;35.70;100846.61;102810;1292;62206;-80
2024/03/06 00:43:14;;;;;;;;;;;;;;;20.93;35.83;100845.70;102870;1294;62251;-79
2024/03/06 00:45:40;;;;;;;;;;;;;;;20.93;35.74;100843.92;103004;1292;63372;-80
2024/03/06 00:48:05;;;;;;;;;;;;;;;20.93;35.68;100844.26;102655;1294;62275;-81
2024/03/06 00:50:32;;;;;;;;;;;;;;;20.93;35.73;100844.10;102666;1289;62258;-80
2024/03/06 00:52:57;;;;;;;;;;;;;;;20.93;35.70;100846.77;102969;1289;62195;-81
2024/03/06 00:55:23;;;;;;;;;;;;;;;20.93;35.67;100848.17;102794;1290;62273;-79
2024/03/06 00:57:48;;;;;;;;;;;;;;;20.94;35.62;100850.66;102989;1294;63296;-79
2024/03/06 01:00:15;;;;;;;;;;;;;;;20.94;35.69;100850.12;102810;1289;76163;-80
2024/03/06 01:02:41;;;;;;;;;;;;;;;20.94;35.74;100846.70;102663;1292;62218;-79
2024/03/06 01:05:07;;;;;;;;;;;;;;;20.94;35.64;100844.39;102838;1291;63600;-81
2024/03/06 01:07:34;;;;;;;;;;;;;;;20.94;35.67;100847.24;102896;1290;62200;-81
2024/03/06 01:10:01;;;;;;;;;;;;;;;20.95;35.63;100852.23;102804;1294;62185;-78
2024/03/06 01:12:26;;;;;;;;;;;;;;;20.94;35.62;100851.02;102695;1290;62299;-80
2024/03/06 01:14:52;;;;;;;;;;;;;;;20.95;35.63;100853.84;102787;1296;63605;-82
2024/03/06 01:17:18;;;;;;;;;;;;;;;20.95;35.71;100849.88;102858;1292;62235;-79
2024/03/06 01:19:43;;;;;;;;;;;;;;;20.95;35.62;100851.86;102891;1294;62165;-80
2024/03/06 01:22:09;;;;;;;;;;;;;;;20.96;35.69;100850.58;102792;1291;62206;-79
2024/03/06 01:24:35;;;;;;;;;;;;;;;20.96;35.58;100847.52;102708;1291;63369;-79
2024/03/06 01:27:02;;;;;;;;;;;;;;;20.95;35.74;100846.46;102669;1294;62186;-82
2024/03/06 01:29:28;;;;;;;;;;;;;;;20.96;35.68;100847.35;102864;1290;71550;-80
2024/03/06 01:31:54;;;;;;;;;;;;;;;20.95;35.56;100848.79;102681;1292;62284;-79
2024/03/06 01:34:19;;;;;;;;;;;;;;;20.96;35.70;100852.71;102920;1290;63472;-80
2024/03/06 01:36:45;;;;;;;;;;;;;;;20.95;35.70;100855.94;102929;1292;63350;-79
2024/03/06 01:39:12;;;;;;;;;;;;;;;20.96;35.50;100852.52;102879;1289;63296;-80
2024/03/06 01:41:37;;;;;;;;;;;;;;;20.96;35.54;100854.30;102722;1291;62261;-80
2024/03/06 01:44:03;;;;;;;;;;;;;;;20.96;35.75;100852.19;102940;1294;62200;-80
2024/03/06 01:46:29;;;;;;;;;;;;;;;20.96;35.67;100857.34;102722;1295;62184;-78
2024/03/06 01:48:55;;;;;;;;;;;;;;;20.96;35.63;100856.80;102823;1292;62235;-79
2024/03/06 01:51:21;;;;;;;;;;;;;;;20.96;35.75;100855.35;102683;1291;63330;-80
2024/03/06 01:53:47;;;;;;;;;;;;;;;20.96;35.62;100861.77;102798;1292;62242;-79
2024/03/06 01:56:17;;;;;;;;;;;;;;;20.97;35.50;100863.92;102729;1294;63280;-80
2024/03/06 01:58:42;;;;;;;;;;;;;;;20.97;35.64;100859.77;102907;1292;62106;-81
2024/03/06 02:01:08;;;;;;;;;;;;;;;20.97;35.51;100860.30;102988;1289;63397;-79
2024/03/06 02:03:33;;;;;;;;;;;;;;;20.97;35.62;100860.67;102895;1294;62124;-79
2024/03/06 02:05:59;;;;;;;;;;;;;;;20.97;35.58;100864.58;102629;1297;62953;-79
2024/03/06 02:08:26;;;;;;;;;;;;;;;20.97;35.61;100863.14;102748;1291;63574;-79
2024/03/06 02:10:51;;;;;;;;;;;;;;;20.97;35.64;100868.73;102727;1290;62213;-81
2024/03/06 02:13:18;;;;;;;;;;;;;;;20.98;35.61;100874.73;102876;1294;72315;-80
2024/03/06 02:15:46;;;;;;;;;;;;;;;20.97;35.64;100874.08;102899;1290;62197;-80
2024/03/06 02:18:12;;;;;;;;;;;;;;;20.98;35.56;100873.66;102677;1290;62730;-79
2024/03/06 02:20:38;;;;;;;;;;;;;;;20.98;35.55;100878.09;102703;1291;62194;-78
2024/03/06 02:23:04;;;;;;;;;;;;;;;20.98;35.51;100878.64;103101;1291;62168;-79
2024/03/06 02:25:30;;;;;;;;;;;;;;;20.99;35.44;100882.01;102611;1291;62250;-79
2024/03/06 02:27:55;;;;;;;;;;;;;;;20.98;35.58;100889.00;102970;1294;63348;-80
2024/03/06 02:30:21;;;;;;;;;;;;;;;20.98;35.67;100896.52;102846;1289;63262;-80
2024/03/06 02:32:46;;;;;;;;;;;;;;;20.98;35.58;100894.19;102870;1294;62214;-80
2024/03/06 02:35:13;;;;;;;;;;;;;;;20.99;35.52;100892.54;102621;1292;62105;-80
2024/03/06 02:37:41;;;;;;;;;;;;;;;20.99;35.58;100895.04;102831;1290;75172;-78
2024/03/06 02:40:07;;;;;;;;;;;;;;;20.99;35.52;100898.79;102731;1291;63151;-80
2024/03/06 02:42:32;;;;;;;;;;;;;;;21.00;35.58;100901.63;102980;1290;62241;-80
2024/03/06 02:44:58;;;;;;;;;;;;;;;21.00;35.47;100901.27;102714;1291;62195;-80
2024/03/06 02:47:24;;;;;;;;;;;;;;;21.00;35.59;100899.11;102657;1291;63251;-80
2024/03/06 02:49:50;;;;;;;;;;;;;;;21.00;35.58;100900.89;102920;1289;62661;-79
2024/03/06 02:52:15;;;;;;;;;;;;;;;21.00;35.50;100903.38;102834;1290;62204;-79
2024/03/06 02:54:41;;;;;;;;;;;;;;;20.99;35.49;100900.91;102824;1289;63385;-80
2024/03/06 02:57:08;;;;;;;;;;;;;;;21.00;35.53;100899.98;102829;1294;72378;-79
2024/03/06 02:59:34;;;;;;;;;;;;;;;21.00;35.53;100900.86;102863;1291;62347;-79
2024/03/06 03:02:00;;;;;;;;;;;;;;;21.01;35.63;100904.95;102658;1292;62189;-81
2024/03/06 03:04:26;;;;;;;;;;;;;;;21.00;35.62;100909.27;102870;1291;62241;-80
2024/03/06 03:06:52;;;;;;;;;;;;;;;21.01;35.47;100905.11;102855;1290;63455;-79
2024/03/06 03:09:17;;;;;;;;;;;;;;;21.01;35.62;100900.64;102814;1291;62231;-82
2024/03/06 03:11:46;;;;;;;;;;;;;;;21.01;35.53;100900.66;102865;1289;62348;-81
2024/03/06 03:14:11;;;;;;;;;;;;;;;21.01;35.62;100901.36;102729;1289;63309;-81
2024/03/06 03:16:37;;;;;;;;;;;;;;;21.01;35.61;100902.98;102852;1294;62195;-79
2024/03/06 03:19:04;;;;;;;;;;;;;;;21.01;35.46;100906.70;102650;1291;62210;-79
2024/03/06 03:21:32;;;;;;;;;;;;;;;21.01;35.49;100911.91;102865;1294;62192;-81
2024/03/06 03:23:58;;;;;;;;;;;;;;;21.01;35.56;100911.55;103149;1291;62195;-80
2024/03/06 03:26:23;;;;;;;;;;;;;;;21.01;35.48;100913.50;102812;1291;62133;-80
2024/03/06 03:28:49;;;;;;;;;;;;;;;21.02;35.44;100918.84;102807;1289;62220;-80
2024/03/06 03:31:14;;;;;;;;;;;;;;;21.02;35.49;100922.24;102825;1289;63550;-78
2024/03/06 03:33:40;;;;;;;;;;;;;;;21.01;35.47;100926.19;102715;1297;62118;-78
2024/03/06 03:36:07;;;;;;;;;;;;;;;21.02;35.53;100925.83;102676;1296;62132;-79
2024/03/06 03:38:35;;;;;;;;;;;;;;;21.02;35.39;100931.16;102985;1291;62141;-81
2024/03/06 03:41:03;;;;;;;;;;;;;;;21.02;35.49;100928.46;102698;1290;72496;-80
2024/03/06 03:43:30;;;;;;;;;;;;;;;21.02;35.40;100926.88;102822;1291;75067;-80
2024/03/06 03:45:56;;;;;;;;;;;;;;;21.02;35.52;100926.29;102855;1289;62203;-80
2024/03/06 03:48:22;;;;;;;;;;;;;;;21.03;35.47;100923.61;102686;1291;62420;-82
2024/03/06 03:50:47;;;;;;;;;;;;;;;21.03;35.42;100926.10;102831;1289;62143;-78
2024/03/06 03:53:13;;;;;;;;;;;;;;;21.03;35.31;100931.10;102910;1297;62137;-79
2024/03/06 03:55:38;;;;;;;;;;;;;;;21.02;35.27;100927.39;102710;1291;62925;-79
2024/03/06 03:58:06;;;;;;;;;;;;;;;21.03;35.39;100933.42;103127;1289;62210;-79
2024/03/06 04:00:32;;;;;;;;;;;;;;;21.03;35.45;100936.84;102761;1291;62121;-81
2024/03/06 04:02:58;;;;;;;;;;;;;;;21.03;35.38;100939.67;102630;1291;62213;-82
2024/03/06 04:05:25;;;;;;;;;;;;;;;21.03;35.38;100946.64;102738;1289;62514;-80
2024/03/06 04:07:51;;;;;;;;;;;;;;;21.03;35.37;100944.14;102778;1291;62209;-81
2024/03/06 04:10:16;;;;;;;;;;;;;;;21.02;35.30;100944.38;102677;1292;62552;-80
2024/03/06 04:12:42;;;;;;;;;;;;;;;21.01;35.35;100946.61;101903;1292;1138325;-81
2024/03/06 04:15:08;;;;;;;;;;;;;;;21.01;35.28;100944.14;103051;1294;62216;-82
2024/03/06 04:17:34;;;;;;;;;;;;;;;21.01;35.37;100944.83;102666;1291;75776;-82
2024/03/06 04:19:59;;;;;;;;;;;;;;;21.00;35.41;100945.05;102935;1291;63219;-79
2024/03/06 04:22:26;;;;;;;;;;;;;;;21.01;35.30;100950.21;103022;1295;62217;-81
2024/03/06 04:24:51;;;;;;;;;;;;;;;21.01;35.42;100950.21;102670;1291;62188;-83
2024/03/06 04:27:17;;;;;;;;;;;;;;;21.01;35.38;100952.90;102799;1291;62325;-81
2024/03/06 04:29:43;;;;;;;;;;;;;;;21.00;35.30;100956.50;102853;1289;62175;-83
2024/03/06 04:32:08;;;;;;;;;;;;;;;21.00;35.23;100954.88;102744;1291;62296;-82
2024/03/06 04:34:34;;;;;;;;;;;;;;;21.00;35.22;100953.29;102834;1289;62232;-81
2024/03/06 04:37:01;;;;;;;;;;;;;;;20.99;35.16;100956.04;103086;1292;62437;-79
2024/03/06 04:39:27;;;;;;;;;;;;;;;20.99;35.26;100954.79;102923;1293;75494;-82
2024/03/06 04:41:52;;;;;;;;;;;;;;;20.99;35.25;100956.95;102858;1290;62207;-81
2024/03/06 04:44:18;;;;;;;;;;;;;;;20.99;35.21;100953.05;103042;1290;62651;-81
2024/03/06 04:46:43;;;;;;;;;;;;;;;20.99;35.13;100954.48;102697;1289;62305;-81
2024/03/06 04:49:09;;;;;;;;;;;;;;;20.98;35.17;100953.09;102940;1291;62644;-81
2024/03/06 04:51:35;;;;;;;;;;;;;;;20.98;35.18;100956.51;103264;1290;76259;-81
2024/03/06 04:54:01;;;;;;;;;;;;;;;20.97;35.11;100960.46;102733;1291;62263;-82
2024/03/06 04:56:26;;;;;;;;;;;;;;;20.97;35.21;100966.03;102879;1291;63255;-81
2024/03/06 04:58:52;;;;;;;;;;;;;;;20.97;35.00;100966.73;103067;1289;63455;-81
2024/03/06 05:01:17;;;;;;;;;;;;;;;20.98;35.08;100978.33;102807;1291;62256;-82
2024/03/06 05:03:43;;;;;;;;;;;;;;;20.98;35.10;100982.98;103394;1292;75494;-80
2024/03/06 05:06:08;;;;;;;;;;;;;;;20.97;35.02;100986.05;103582;1289;62770;-79
2024/03/06 05:08:34;;;;;;;;;;;;;;;20.97;35.06;100985.77;103258;1290;62200;-79
2024/03/06 05:11:00;;;;;;;;;;;;;;;20.96;35.08;100989.52;103525;1294;62228;-79
2024/03/06 05:13:26;;;;;;;;;;;;;;;20.97;34.97;100994.18;103391;1289;62087;-79
2024/03/06 05:15:52;;;;;;;;;;;;;;;20.96;35.08;100992.02;102859;1293;62213;-81
2024/03/06 05:18:17;;;;;;;;;;;;;;;20.96;34.95;100996.03;102722;1291;62197;-81
2024/03/06 05:20:43;;;;;;;;;;;;;;;20.96;34.93;100999.95;103116;1289;62300;-80
2024/03/06 05:23:08;;;;;;;;;;;;;;;20.95;34.94;101003.55;103295;1291;62224;-79
2024/03/06 05:25:34;;;;;;;;;;;;;;;20.95;34.97;101003.95;102708;1289;62462;-80
2024/03/06 05:27:59;;;;;;;;;;;;;;;20.92;34.98;101006.77;102769;1296;62232;-81
2024/03/06 05:30:25;;;;;;;;;;;;;;;20.89;34.95;101008.55;102813;1290;62146;-81
2024/03/06 05:32:52;;;;;;;;;;;;;;;20.86;34.97;101010.61;102717;1296;62208;-79
2024/03/06 05:35:18;;;;;;;;;;;;;;;20.84;34.87;101013.79;102896;1292;62389;-80
2024/03/06 05:37:43;;;;;;;;;;;;;;;20.80;34.83;101014.73;103171;1290;62198;-81
2024/03/06 05:40:09;;;;;;;;;;;;;;;20.79;34.97;101018.80;103365;1295;62209;-79
2024/03/06 05:42:34;;;;;;;;;;;;;;;20.77;34.81;101020.87;103378;1291;62107;-79
2024/03/06 05:45:10;;;;;;;;;;;;;;;20.74;34.78;101020.52;103396;1291;62261;-80
2024/03/06 05:47:37;;;;;;;;;;;;;;;20.71;34.74;101027.14;103531;1290;72452;-80
2024/03/06 05:50:04;;;;;;;;;;;;;;;20.67;34.80;101028.98;103307;1291;75082;-79
2024/03/06 05:52:33;;;;;;;;;;;;;;;20.64;34.60;101031.49;103823;1291;64492;-79
2024/03/06 05:54:59;;;;;;;;;;;;;;;20.61;34.61;101031.88;103699;1291;62086;-78
2024/03/06 05:57:24;;;;;;;;;;;;;;;20.57;34.62;101037.84;103754;1291;62229;-79
2024/03/06 05:59:50;;;;;;;;;;;;;;;20.53;34.63;101036.34;103824;1291;62254;-81
2024/03/06 06:02:19;;;;;;;;;;;;;;;20.49;34.72;101032.87;104289;1290;62258;-79
2024/03/06 06:04:45;;;;;;;;;;;;;;;20.44;34.67;101035.99;104943;1290;60843;-81
2024/03/06 06:07:11;;;;;;;;;;;;;;;20.41;34.71;101032.83;104929;1291;62551;-80
2024/03/06 06:09:36;;;;;;;;;;;;;;;20.38;34.79;101035.85;105011;1290;62210;-80
2024/03/06 06:12:02;;;;;;;;;;;;;;;20.37;34.69;101033.11;104763;1294;60663;-80
2024/03/06 06:14:29;;;;;;;;;;;;;;;20.35;34.71;101034.63;104607;1291;61865;-79
2024/03/06 06:16:56;;;;;;;;;;;;;;;20.34;34.66;101036.13;104265;1291;62242;-81
2024/03/06 06:19:21;;;;;;;;;;;;;;;20.34;34.70;101037.56;103865;1292;62430;-79
2024/03/06 06:21:47;;;;;;;;;;;;;;;20.33;34.66;101037.61;103996;1291;62249;-78
2024/03/06 06:24:13;;;;;;;;;;;;;;;20.32;34.59;101037.50;103930;1291;62076;-81
2024/03/06 06:26:39;;;;;;;;;;;;;;;20.31;34.48;101040.45;103946;1292;62217;-80
2024/03/06 06:29:04;;;;;;;;;;;;;;;20.29;34.53;101039.51;104200;1291;62063;-81
2024/03/06 06:31:30;;;;;;;;;;;;;;;20.28;34.37;101042.98;104036;1291;62877;-80
2024/03/06 06:33:57;;;;;;;;;;;;;;;20.26;34.57;101044.83;104224;1289;62185;-79
2024/03/06 06:36:23;;;;;;;;;;;;;;;20.25;34.46;101045.45;104354;1290;62439;-79
2024/03/06 06:38:48;;;;;;;;;;;;;;;20.24;34.55;101045.00;104256;1291;62265;-80
2024/03/06 06:41:14;;;;;;;;;;;;;;;20.23;34.49;101044.85;104648;1291;60144;-80
2024/03/06 06:43:41;;;;;;;;;;;;;;;20.22;34.54;101048.19;104948;1291;62116;-81
2024/03/06 06:46:07;;;;;;;;;;;;;;;20.21;34.46;101048.75;104721;1290;61029;-81
2024/03/06 06:48:33;;;;;;;;;;;;;;;20.20;34.50;101049.34;104648;1291;62166;-81
2024/03/06 06:51:02;;;;;;;;;;;;;;;20.19;34.43;101049.77;104670;1291;62080;-81
2024/03/06 06:53:28;;;;;;;;;;;;;;;20.19;34.46;101047.27;104641;1291;75694;-82
2024/03/06 06:55:54;;;;;;;;;;;;;;;20.17;34.28;101042.22;104831;1291;60103;-80
2024/03/06 06:58:20;;;;;;;;;;;;;;;20.17;34.43;101041.36;104501;1291;62123;-81
2024/03/06 07:00:45;;;;;;;;;;;;;;;20.16;34.47;101042.45;104714;1291;62268;-81
2024/03/06 07:03:11;;;;;;;;;;;;;;;20.16;34.52;101051.38;104752;1291;62092;-81
2024/03/06 07:05:36;;;;;;;;;;;;;;;20.17;34.55;101055.11;104744;1289;60139;-81
2024/03/06 07:08:02;;;;;;;;;;;;;;;20.17;34.71;101055.05;105013;1290;62007;-81
2024/03/06 07:10:28;;;;;;;;;;;;;;;20.17;34.66;101061.70;105027;1291;62177;-82
2024/03/06 07:12:53;;;;;;;;;;;;;;;20.16;34.55;101067.52;104802;1292;59951;-82
2024/03/06 07:15:19;;;;;;;;;;;;;;;20.15;34.72;101064.36;104841;1291;62180;-81
2024/03/06 07:17:44;;;;;;;;;;;;;;;20.14;34.68;101068.14;104473;1289;60548;-79
2024/03/06 07:20:11;;;;;;;;;;;;;;;20.15;34.62;101072.60;104381;1290;59910;-79
2024/03/06 07:22:37;;;;;;;;;;;;;;;20.16;34.77;101074.66;104458;1290;62045;-79
2024/03/06 07:25:03;;;;;;;;;;;;;;;20.18;34.49;101074.00;104446;1290;62169;-79
2024/03/06 07:27:29;;;;;;;;;;;;;;;20.20;34.42;101072.23;105915;1291;60235;-79
2024/03/06 07:29:55;;;;;;;;;;;;;;;20.23;34.41;101075.77;106140;1290;59968;-80
2024/03/06 07:32:21;;;;;;;;;;;;;;;20.26;34.34;101075.75;106063;1291;60166;-79
2024/03/06 07:34:46;;;;;;;;;;;;;;;20.29;34.49;101075.96;105475;1291;59964;-79
2024/03/06 07:37:12;;;;;;;;;;;;;;;20.32;34.46;101076.33;104322;1290;62323;-81
2024/03/06 07:39:38;;;;;;;;;;;;;;;20.33;34.48;101079.61;104507;1293;62181;-79
2024/03/06 07:42:04;;;;;;;;;;;;;;;20.34;34.54;101082.78;104542;1290;62152;-81
2024/03/06 07:44:29;;;;;;;;;;;;;;;20.34;34.60;101084.74;104577;1291;62094;-80
2024/03/06 07:46:56;;;;;;;;;;;;;;;20.34;34.53;101085.31;104502;1291;60493;-78
2024/03/06 07:49:22;;;;;;;;;;;;;;;20.33;34.47;101087.31;104485;1290;61979;-79
2024/03/06 07:51:48;;;;;;;;;;;;;;;20.33;34.56;101085.53;104626;1290;60202;-80
2024/03/06 07:54:13;;;;;;;;;;;;;;;20.34;34.46;101088.17;104748;1290;62209;-80
2024/03/06 07:56:39;;;;;;;;;;;;;;;20.30;34.49;101087.32;104902;1290;60719;-82
2024/03/06 07:59:04;;;;;;;;;;;;;;;20.30;34.74;101089.14;104624;1290;71670;-79
2024/03/06 08:01:31;;;;;;;;;;;;;;;20.32;35.20;101089.00;104746;1291;62116;-81
2024/03/06 08:03:57;;;;;;;;;;;;;;;20.34;35.18;101087.82;104934;1290;61977;-80
2024/03/06 08:06:23;;;;;;;;;;;;;;;20.35;35.19;101094.52;104883;1290;62201;-81
2024/03/06 08:08:49;;;;;;;;;;;;;;;20.39;35.47;101091.55;104742;1291;62055;-79
2024/03/06 08:11:14;;;;;;;;;;;;;;;20.44;35.75;101091.44;104639;1290;61370;-80
2024/03/06 08:13:40;;;;;;;;;;;;;;;20.47;35.72;101093.44;104555;1291;60839;-79
2024/03/06 08:16:06;;;;;;;;;;;;;;;20.47;35.63;101094.84;104739;1290;62110;-81
2024/03/06 08:18:32;;;;;;;;;;;;;;;20.48;35.71;101098.17;104566;1290;63976;-81
2024/03/06 08:20:57;;;;;;;;;;;;;;;20.47;35.46;101097.18;105911;1289;60036;-80
2024/03/06 08:23:24;;;;;;;;;;;;;;;20.46;35.45;101095.96;105860;1290;60027;-79
2024/03/06 08:25:51;;;;;;;;;;;;;;;20.45;35.50;101099.08;105854;1293;60561;-80
2024/03/06 08:28:16;;;;;;;;;;;;;;;20.45;35.38;101100.88;105768;1291;60278;-81
2024/03/06 08:30:42;;;;;;;;;;;;;;;20.45;35.46;101107.13;105909;1291;60482;-82
2024/03/06 08:33:07;;;;;;;;;;;;;;;20.41;35.32;101108.09;105782;1290;59988;-79
2024/03/06 08:35:34;;;;;;;;;;;;;;;20.38;35.24;101111.86;105906;1291;60256;-79
2024/03/06 08:37:59;;;;;;;;;;;;;;;20.34;35.22;101114.08;105983;1290;59931;-80
2024/03/06 08:40:27;;;;;;;;;;;;;;;20.32;35.33;101115.09;105761;1291;60246;-80
2024/03/06 08:42:52;;;;;;;;;;;;;;;20.31;35.21;101121.25;105742;1291;72551;-81
2024/03/06 08:45:18;;;;;;;;;;;;;;;20.29;35.22;101115.98;105895;1289;60349;-81
2024/03/06 08:47:44;;;;;;;;;;;;;;;20.28;35.08;101117.85;105966;1290;60389;-80
2024/03/06 08:50:09;;;;;;;;;;;;;;;20.27;35.21;101114.50;105966;1289;60438;-81
2024/03/06 08:52:35;;;;;;;;;;;;;;;20.27;35.27;101113.23;105673;1291;60383;-80
2024/03/06 08:55:04;;;;;;;;;;;;;;;20.24;34.91;101111.09;105716;1291;60424;-80
2024/03/06 08:57:31;;;;;;;;;;;;;;;20.12;34.81;101109.55;105825;1290;75335;-81
2024/03/06 08:59:56;;;;;;;;;;;;;;;20.05;35.20;101111.39;105853;1289;60238;-80
2024/03/06 09:02:22;;;;;;;;;;;;;;;20.06;35.37;101109.36;105897;1289;60486;-79
2024/03/06 09:04:47;;;;;;;;;;;;;;;20.10;35.58;101110.54;105718;1291;60397;-81
2024/03/06 09:07:13;;;;;;;;;;;;;;;20.14;35.65;101114.60;105826;1291;60191;-81
2024/03/06 09:09:39;;;;;;;;;;;;;;;20.17;35.61;101111.77;106001;1290;60088;-81
2024/03/06 09:12:10;;;;;;;;;;;;;;;20.17;35.54;101112.84;105946;1290;60480;-81
2024/03/06 09:14:36;;;;;;;;;;;;;;;20.17;35.55;101108.50;105934;1289;60091;-80
2024/03/06 09:17:01;;;;;;;;;;;;;;;20.18;35.41;101109.89;105974;1289;60235;-80
2024/03/06 09:19:27;;;;;;;;;;;;;;;20.19;35.34;101104.44;105817;1291;59331;-80
2024/03/06 09:21:53;;;;;;;;;;;;;;;20.21;35.40;101102.54;105885;1291;59962;-79
2024/03/06 09:24:19;;;;;;;;;;;;;;;20.24;35.28;101099.30;105754;1290;60462;-80
2024/03/06 09:26:45;;;;;;;;;;;;;;;20.28;35.18;101100.71;105952;1291;60254;-80
2024/03/06 09:29:11;;;;;;;;;;;;;;;20.32;35.38;101105.11;105954;1291;60821;-81
2024/03/06 09:31:37;;;;;;;;;;;;;;;20.35;35.15;101106.53;105992;1289;60015;-82
2024/03/06 09:34:02;;;;;;;;;;;;;;;20.36;35.23;101105.17;106001;1290;61438;-82
2024/03/06 09:36:28;;;;;;;;;;;;;;;20.36;35.14;101102.71;105930;1290;60768;-81
2024/03/06 09:38:53;;;;;;;;;;;;;;;20.31;34.90;101106.05;105985;1291;59906;-81
2024/03/06 09:41:20;;;;;;;;;;;;;;;20.25;35.05;101107.80;105976;1289;60433;-81
2024/03/06 09:43:45;;;;;;;;;;;;;;;20.23;34.92;101109.39;105897;1290;60153;-82
2024/03/06 09:46:11;;;;;;;;;;;;;;;20.21;34.79;101103.06;105912;1289;60357;-82
2024/03/06 09:48:36;;;;;;;;;;;;;;;20.18;34.49;101106.49;105951;1290;60384;-81
2024/03/06 09:51:02;;;;;;;;;;;;;;;19.99;34.36;101107.86;105929;1288;59578;-81
2024/03/06 09:53:28;;;;;;;;;;;;;;;19.82;34.34;101101.56;105935;1288;61295;-80
2024/03/06 09:55:53;;;;;;;;;;;;;;;19.75;34.14;101104.63;106078;1288;60217;-80
2024/03/06 09:58:19;;;;;;;;;;;;;;;19.67;34.20;101104.61;105845;1289;60978;-80
2024/03/06 10:00:44;;;;;;;;;;;;;;;19.55;34.32;101105.24;106013;1288;60266;-80
2024/03/06 10:03:11;;;;;;;;;;;;;;;19.52;34.61;101102.24;105981;1288;60836;-81
2024/03/06 10:05:36;;;;;;;;;;;;;;;19.61;35.16;101103.85;106071;1288;59496;-82
2024/03/06 10:08:04;;;;;;;;;;;;;;;19.72;35.55;101098.89;105941;1288;59593;-81
2024/03/06 10:10:29;;;;;;;;;;;;;;;19.83;35.91;101093.80;105667;1288;60651;-81
2024/03/06 10:12:57;;;;;;;;;;;;;;;19.89;36.03;101091.83;105883;1288;59940;-81
2024/03/06 10:15:22;;;;;;;;;;;;;;;19.90;35.93;101090.18;106052;1290;60158;-81
2024/03/06 10:17:49;;;;;;;;;;;;;;;19.91;35.94;101093.51;106090;1289;59998;-81
2024/03/06 10:20:21;;;;;;;;;;;;;;;19.90;35.82;101090.73;106024;1288;60053;-80
2024/03/06 10:22:50;;;;;;;;;;;;;;;19.95;35.91;101093.80;105938;1289;72587;-80
2024/03/06 10:25:19;;;;;;;;;;;;;;;19.99;35.83;101093.00;106008;1290;75035;-82
2024/03/06 10:27:45;;;;;;;;;;;;;;;20.03;35.98;101092.21;106007;1291;60875;-80
2024/03/06 10:30:15;;;;;;;;;;;;;;;20.07;35.89;101090.54;105358;1290;60124;-79
2024/03/06 10:32:43;;;;;;;;;;;;;;;20.09;35.79;101085.23;104992;1289;72654;-81
2024/03/06 10:35:17;;;;;;;;;;;;;;;20.12;35.72;101080.94;105282;1289;77241;-80
2024/03/06 10:37:44;;;;;;;;;;;;;;;20.17;35.74;101073.15;105206;1290;62450;-80
2024/03/06 10:40:12;;;;;;;;;;;;;;;20.21;35.53;101067.90;105128;1291;61963;-80
2024/03/06 10:42:37;;;;;;;;;;;;;;;20.22;35.50;101067.81;104932;1291;72185;-80
2024/03/06 10:45:03;;;;;;;;;;;;;;;20.20;35.29;101063.64;105191;1290;60450;-84
2024/03/06 10:47:28;;;;;;;;;;;;;;;20.14;35.30;101062.45;104955;1291;62081;-79
2024/03/06 10:49:54;;;;;;;;;;;;;;;20.08;35.39;101059.60;105067;1291;62272;-80
2024/03/06 10:52:19;;;;;;;;;;;;;;;20.10;35.29;101060.16;105148;1291;62075;-81
2024/03/06 10:54:46;;;;;;;;;;;;;;;20.13;35.24;101058.20;105016;1291;71001;-81
2024/03/06 10:57:11;;;;;;;;;;;;;;;20.16;35.28;101055.89;104995;1290;62673;-81
2024/03/06 10:59:37;;;;;;;;;;;;;;;20.15;35.11;101058.09;104829;1291;60036;-82
2024/03/06 11:02:03;;;;;;;;;;;;;;;20.15;35.01;101053.80;105110;1291;60587;-81
2024/03/06 11:04:34;;;;;;;;;;;;;;;20.13;34.78;101054.79;104937;1291;62154;-82
2024/03/06 11:07:03;;;;;;;;;;;;;;;20.10;35.00;101051.05;105072;1291;76525;-80
2024/03/06 11:09:36;;;;;;;;;;;;;;;20.07;35.15;101057.52;105021;1291;61935;-81
2024/03/06 11:12:06;;;;;;;;;;;;;;;20.04;35.16;101054.65;105188;1290;60435;-80
2024/03/06 11:14:32;;;;;;;;;;;;;;;20.04;35.23;101054.67;105079;1292;72540;-81
2024/03/06 11:17:03;;;;;;;;;;;;;;;20.04;35.11;101054.87;104927;1290;62198;-81
2024/03/06 11:19:51;;;;;;;;;;;;;;;20.01;35.01;101052.19;104929;1291;61985;-81
2024/03/06 11:22:16;;;;;;;;;;;;;;;19.93;35.09;101051.73;104853;1290;61911;-81
2024/03/06 11:24:42;;;;;;;;;;;;;;;19.94;34.97;101047.44;104974;1291;62112;-80
2024/03/06 11:27:15;;;;;;;;;;;;;;;19.95;35.14;101049.32;104996;1290;76262;-80
2024/03/06 11:29:59;;;;;;;;;;;;;;;19.99;35.42;101045.85;104452;1291;61943;-80
2024/03/06 11:32:25;;;;;;;;;;;;;;;20.03;35.45;101038.30;104837;1295;61258;-82
2024/03/06 11:34:50;;;;;;;;;;;;;;;20.05;35.41;101037.59;104968;1290;62112;-81
2024/03/06 11:37:19;;;;;;;;;;;;;;;20.03;35.29;101035.25;104785;1294;61470;-82
2024/03/06 11:39:45;;;;;;;;;;;;;;;19.99;35.07;101037.08;104462;1293;62055;-81
2024/03/06 11:42:11;;;;;;;;;;;;;;;19.97;35.16;101036.20;105039;1291;61096;-82
2024/03/06 11:44:37;;;;;;;;;;;;;;;19.95;35.15;101029.67;104838;1291;62194;-82
2024/03/06 11:47:03;;;;;;;;;;;;;;;19.94;35.03;101031.89;104736;1294;62080;-83
2024/03/06 11:49:29;;;;;;;;;;;;;;;19.92;34.92;101030.91;104858;1290;60729;-80
2024/03/06 11:52:02;;;;;;;;;;;;;;;19.90;34.77;101029.63;104576;1291;60452;-79
2024/03/06 11:54:28;;;;;;;;;;;;;;;19.89;34.93;101028.07;104657;1290;72337;-80
2024/03/06 11:56:54;;;;;;;;;;;;;;;19.91;34.72;101025.07;104686;1293;62065;-81
2024/03/06 11:59:23;;;;;;;;;;;;;;;19.94;34.64;101020.98;104425;1290;62267;-82
2024/03/06 12:01:48;;;;;;;;;;;;;;;19.96;34.59;101019.63;104842;1290;61898;-80
2024/03/06 12:04:14;;;;;;;;;;;;;;;19.92;34.46;101019.64;105096;1291;60049;-82
2024/03/06 12:06:39;;;;;;;;;;;;;;;19.85;34.19;101021.71;104929;1289;62172;-84
2024/03/06 12:09:05;;;;;;;;;;;;;;;19.66;34.35;101017.89;104837;1291;61195;-81
2024/03/06 12:11:31;;;;;;;;;;;;;;;19.65;34.64;101019.89;104913;1290;62220;-80
2024/03/06 12:13:56;;;;;;;;;;;;;;;19.70;34.70;101020.45;105126;1291;62015;-81
2024/03/06 12:16:22;;;;;;;;;;;;;;;19.73;34.92;101015.44;104867;1296;60605;-83
2024/03/06 12:18:57;;;;;;;;;;;;;;;19.78;35.03;101016.95;105042;1293;60827;-80
2024/03/06 12:21:27;;;;;;;;;;;;;;;19.84;35.25;101011.77;105763;1291;62284;-79